createdAt,value
2023-05-03T00:01:51.911Z,3.50
2023-05-03T00:04:55.084Z,3.40
2023-05-03T00:07:58.854Z,3.42
2023-05-03T00:11:01.745Z,3.30
2023-05-03T00:14:04.994Z,3.08
2023-05-03T00:17:08.217Z,3.35
2023-05-03T00:20:12.301Z,3.40
2023-05-03T00:23:15.646Z,3.65
2023-05-03T00:26:18.786Z,3.08
2023-05-03T00:29:23.115Z,2.70
2023-05-03T00:32:26.802Z,3.75
2023-05-03T00:35:29.879Z,3.13
2023-05-03T00:38:33.227Z,2.80
2023-05-03T00:41:36.367Z,3.28
2023-05-03T00:44:39.539Z,3.50
2023-05-03T00:47:43.524Z,2.45
2023-05-03T00:50:48.115Z,2.63
2023-05-03T00:53:51.838Z,2.92
2023-05-03T00:56:56.552Z,2.38
2023-05-03T01:00:00.895Z,2.35
2023-05-03T01:03:04.497Z,2.25
2023-05-03T01:06:43.515Z,2.33
2023-05-03T01:10:08.320Z,2.70
2023-05-03T01:13:28.689Z,2.30
2023-05-03T01:16:40.011Z,2.13
2023-05-03T01:19:51.913Z,2.55
2023-05-03T01:23:18.575Z,2.20
2023-05-03T01:26:23.711Z,1.88
2023-05-03T01:29:27.656Z,2.53
2023-05-03T01:32:43.275Z,2.50
2023-05-03T01:36:21.681Z,2.13
2023-05-03T01:39:31.591Z,1.73
2023-05-03T01:42:37.644Z,2.05
2023-05-03T01:45:41.034Z,1.88
2023-05-03T01:48:43.976Z,1.90
2023-05-03T01:51:47.050Z,1.98
2023-05-03T01:54:50.043Z,2.00
2023-05-03T01:57:53.100Z,1.63
2023-05-03T02:00:57.450Z,1.83
2023-05-03T02:04:00.901Z,2.25
2023-05-03T02:07:04.252Z,2.47
2023-05-03T02:10:08.017Z,2.40
2023-05-03T02:13:11.690Z,1.88
2023-05-03T02:16:14.882Z,2.33
2023-05-03T02:19:17.770Z,2.28
2023-05-03T02:22:21.281Z,2.92
2023-05-03T02:25:25.743Z,2.30
2023-05-03T02:28:29.976Z,2.15
2023-05-03T02:31:33.110Z,2.83
2023-05-03T02:34:37.255Z,2.67
2023-05-03T02:37:40.541Z,2.58
2023-05-03T02:40:47.637Z,3.30
2023-05-03T02:43:51.292Z,3.45
2023-05-03T02:46:55.162Z,2.88
2023-05-03T02:49:59.830Z,2.78
2023-05-03T02:53:04.442Z,2.95
2023-05-03T02:56:07.878Z,3.57
2023-05-03T02:59:11.868Z,3.08
2023-05-03T03:02:15.256Z,3.90
2023-05-03T03:05:18.493Z,3.65
2023-05-03T03:08:25.130Z,4.05
2023-05-03T03:11:28.795Z,3.43
2023-05-03T03:14:32.204Z,3.28
2023-05-03T03:17:39.295Z,4.00
2023-05-03T03:20:46.534Z,4.63
2023-05-03T03:23:49.633Z,3.80
2023-05-03T03:26:52.757Z,3.77
2023-05-03T03:29:55.879Z,4.07
2023-05-03T03:32:58.977Z,3.88
2023-05-03T03:36:10.270Z,3.50
2023-05-03T03:39:16.788Z,3.75
2023-05-03T03:42:22.206Z,3.67
2023-05-03T03:45:25.549Z,4.28
2023-05-03T03:48:29.295Z,3.30
2023-05-03T03:51:32.155Z,4.10
2023-05-03T03:54:36.864Z,3.65
2023-05-03T03:57:40.097Z,3.67
2023-05-03T04:00:43.849Z,4.00
2023-05-03T04:03:51.964Z,3.67
2023-05-03T04:06:55.024Z,3.17
2023-05-03T04:10:08.117Z,4.00
2023-05-03T04:13:14.553Z,3.43
2023-05-03T04:16:18.108Z,3.63
2023-05-03T04:19:22.903Z,3.10
2023-05-03T04:22:26.663Z,3.67
2023-05-03T04:25:32.129Z,3.40
2023-05-03T04:28:41.444Z,3.63
2023-05-03T04:31:45.246Z,2.63
2023-05-03T04:34:53.884Z,3.03
2023-05-03T04:37:58.739Z,3.03
2023-05-03T04:41:03.909Z,3.00
2023-05-03T04:44:07.414Z,2.77
2023-05-03T04:47:10.829Z,3.05
2023-05-03T04:50:15.259Z,2.83
2023-05-03T04:53:21.061Z,2.75
2023-05-03T04:56:35.813Z,3.47
2023-05-03T04:59:54.290Z,3.63
2023-05-03T05:02:59.070Z,3.20
2023-05-03T05:06:07.224Z,3.75
2023-05-03T05:09:24.033Z,2.42
2023-05-03T05:12:29.648Z,3.45
2023-05-03T05:15:33.452Z,2.80
2023-05-03T05:18:37.061Z,3.33
2023-05-03T05:21:43.052Z,3.45
2023-05-03T05:24:46.422Z,3.50
2023-05-03T05:27:50.884Z,3.35
2023-05-03T05:30:54.386Z,3.20
2023-05-03T05:33:58.612Z,2.97
2023-05-03T05:37:02.081Z,4.18
2023-05-03T05:40:08.010Z,2.83
2023-05-03T05:43:19.267Z,2.92
2023-05-03T05:46:23.404Z,2.50
2023-05-03T05:49:27.751Z,3.28
2023-05-03T05:52:30.898Z,3.08
2023-05-03T05:55:34.152Z,2.97
2023-05-03T05:58:39.011Z,2.85
2023-05-03T06:01:46.116Z,2.23
2023-05-03T06:04:53.270Z,2.80
2023-05-03T06:07:56.481Z,2.92
2023-05-03T06:11:00.252Z,2.50
2023-05-03T06:14:09.651Z,2.15
2023-05-03T06:17:15.661Z,2.10
2023-05-03T06:20:19.197Z,2.17
2023-05-03T06:23:24.552Z,2.75
2023-05-03T06:26:29.326Z,2.30
2023-05-03T06:29:32.500Z,2.67
2023-05-03T06:32:36.224Z,1.97
2023-05-03T06:36:09.783Z,2.63
2023-05-03T06:39:14.300Z,2.72
2023-05-03T06:42:17.800Z,2.28
2023-05-03T06:45:21.673Z,3.00
2023-05-03T06:48:25.146Z,2.43
2023-05-03T06:51:29.756Z,3.00
2023-05-03T06:54:33.142Z,2.60
2023-05-03T06:57:36.744Z,2.47
2023-05-03T07:00:39.958Z,2.90
2023-05-03T07:03:43.593Z,2.87
2023-05-03T07:06:55.911Z,3.08
2023-05-03T07:10:06.113Z,2.95
2023-05-03T07:13:09.852Z,2.75
2023-05-03T07:16:13.243Z,3.47
2023-05-03T07:19:16.392Z,2.80
2023-05-03T07:22:25.188Z,3.20
2023-05-03T07:25:28.267Z,3.88
2023-05-03T07:28:31.646Z,3.38
2023-05-03T07:31:34.668Z,3.75
2023-05-03T07:34:38.818Z,3.13
2023-05-03T07:37:42.781Z,3.33
2023-05-03T07:40:46.155Z,3.60
2023-05-03T07:43:50.335Z,3.50
2023-05-03T07:46:53.796Z,3.65
2023-05-03T07:49:56.862Z,3.37
2023-05-03T07:53:00.152Z,3.30
2023-05-03T07:56:04.009Z,3.50
2023-05-03T07:59:10.120Z,3.72
2023-05-03T08:02:14.383Z,3.65
2023-05-03T08:05:17.975Z,3.50
2023-05-03T08:08:21.329Z,3.70
2023-05-03T08:11:24.304Z,3.50
2023-05-03T08:14:28.182Z,3.47
2023-05-03T08:17:31.530Z,3.50
2023-05-03T08:20:37.049Z,3.00
2023-05-03T08:23:40.468Z,3.03
2023-05-03T08:26:45.498Z,3.45
2023-05-03T08:29:48.921Z,3.10
2023-05-03T08:32:54.823Z,3.13
2023-05-03T08:35:58.239Z,2.40
2023-05-03T08:39:06.575Z,2.30
2023-05-03T08:42:09.901Z,2.25
2023-05-03T08:45:15.998Z,2.55
2023-05-03T08:48:19.482Z,2.70
2023-05-03T08:51:24.870Z,2.57
2023-05-03T08:54:28.404Z,2.65
2023-05-03T08:57:33.747Z,2.60
2023-05-03T09:00:37.091Z,2.40
2023-05-03T09:03:40.270Z,2.13
2023-05-03T09:06:43.636Z,2.30
2023-05-03T09:09:50.005Z,2.10
2023-05-03T09:13:01.623Z,2.13
2023-05-03T09:16:05.300Z,2.17
2023-05-03T09:19:11.872Z,2.17
2023-05-03T09:22:16.689Z,1.97
2023-05-03T09:25:19.936Z,2.40
2023-05-03T09:28:23.841Z,1.98
2023-05-03T09:31:31.301Z,2.15
2023-05-03T09:34:38.770Z,2.45
2023-05-03T09:37:41.866Z,2.33
2023-05-03T09:40:48.321Z,2.10
2023-05-03T09:43:53.511Z,2.65
2023-05-03T09:47:04.321Z,2.28
2023-05-03T09:50:08.119Z,2.13
2023-05-03T09:53:16.020Z,2.30
2023-05-03T09:56:21.016Z,1.88
2023-05-03T09:59:24.255Z,2.20
2023-05-03T10:02:27.942Z,2.17
2023-05-03T10:05:33.658Z,2.55
2023-05-03T10:08:46.187Z,2.30
2023-05-03T10:11:54.151Z,2.75
2023-05-03T10:14:59.608Z,2.40
2023-05-03T10:18:07.983Z,2.47
2023-05-03T10:21:21.866Z,2.45
2023-05-03T10:24:25.471Z,2.77
2023-05-03T10:27:43.093Z,2.47
2023-05-03T10:30:49.973Z,2.67
2023-05-03T10:33:53.119Z,2.13
2023-05-03T10:36:57.078Z,2.47
2023-05-03T10:40:14.112Z,2.30
2023-05-03T10:43:32.892Z,2.40
2023-05-03T10:46:36.882Z,2.78
2023-05-03T10:49:40.458Z,2.72
2023-05-03T10:52:43.661Z,2.90
2023-05-03T10:56:08.490Z,2.33
2023-05-03T10:59:19.522Z,2.75
2023-05-03T11:02:30.307Z,3.30
2023-05-03T11:05:35.208Z,2.72
2023-05-03T11:08:38.888Z,2.38
2023-05-03T11:11:42.757Z,2.10
2023-05-03T11:14:46.599Z,2.90
2023-05-03T11:17:49.736Z,3.00
2023-05-03T11:20:53.859Z,2.30
2023-05-03T11:23:58.898Z,2.38
2023-05-03T11:27:08.029Z,2.53
2023-05-03T11:30:12.185Z,2.30
2023-05-03T11:33:16.487Z,2.85
2023-05-03T11:36:20.314Z,2.22
2023-05-03T11:39:23.378Z,2.38
2023-05-03T11:42:27.014Z,2.20
2023-05-03T11:45:38.980Z,2.10
2023-05-03T11:48:45.142Z,2.33
2023-05-03T11:51:51.676Z,2.03
2023-05-03T11:54:57.525Z,2.25
2023-05-03T11:58:01.582Z,1.77
2023-05-03T12:01:06.269Z,2.10
2023-05-03T12:04:10.154Z,2.00
2023-05-03T12:07:15.916Z,1.65
2023-05-03T12:10:25.765Z,2.28
2023-05-03T12:13:38.789Z,1.80
2023-05-03T12:16:50.808Z,1.25
2023-05-03T12:20:42.743Z,2.15
2023-05-03T12:23:38.417Z,1.83
2023-05-03T12:26:42.529Z,2.38
2023-05-03T12:30:01.432Z,1.87
2023-05-03T12:33:05.516Z,1.75
2023-05-03T12:36:09.952Z,2.10
2023-05-03T12:39:16.342Z,2.35
2023-05-03T12:42:21.964Z,2.53
2023-05-03T12:45:28.829Z,2.10
2023-05-03T12:48:33.037Z,2.28
2023-05-03T12:51:36.471Z,2.33
2023-05-03T12:54:42.104Z,2.15
2023-05-03T12:57:51.417Z,2.42
2023-05-03T13:01:37.960Z,2.53
2023-05-03T13:07:41.864Z,2.30
2023-05-03T13:10:47.904Z,2.17
2023-05-03T13:13:54.305Z,1.92
2023-05-03T13:16:57.433Z,1.93
2023-05-03T13:20:01.548Z,1.85
2023-05-03T13:23:06.262Z,2.25
2023-05-03T13:26:09.387Z,2.00
2023-05-03T13:29:12.976Z,1.98
2023-05-03T13:32:16.377Z,2.10
2023-05-03T13:35:20.387Z,2.60
2023-05-03T13:38:23.580Z,2.03
2023-05-03T13:41:27.135Z,1.85
2023-05-03T13:44:30.404Z,2.17
2023-05-03T13:48:05.180Z,1.37
2023-05-03T13:50:59.277Z,1.75
2023-05-03T13:54:05.253Z,1.83
2023-05-03T13:57:08.577Z,1.65
2023-05-03T14:00:13.303Z,2.00
2023-05-03T14:03:17.610Z,1.70
2023-05-03T14:06:22.110Z,1.70
2023-05-03T14:09:25.484Z,1.80
2023-05-03T14:12:28.885Z,2.17
2023-05-03T14:15:32.423Z,1.33
2023-05-03T14:18:35.835Z,1.73
2023-05-03T14:21:39.202Z,1.92
2023-05-03T14:24:44.416Z,2.17
2023-05-03T14:27:47.575Z,1.48
2023-05-03T14:30:51.782Z,2.25
2023-05-03T14:33:55.370Z,1.67
2023-05-03T14:36:58.451Z,1.85
2023-05-03T14:40:02.267Z,1.90
2023-05-03T14:43:08.096Z,2.00
2023-05-03T14:46:11.426Z,1.85
2023-05-03T14:49:14.898Z,1.97
2023-05-03T14:52:18.249Z,2.10
2023-05-03T14:55:21.615Z,2.10
2023-05-03T14:58:25.353Z,1.83
2023-05-03T15:01:28.622Z,2.45
2023-05-03T15:04:31.745Z,2.50
2023-05-03T15:07:34.989Z,2.28
2023-05-03T15:10:39.977Z,2.70
2023-05-03T15:13:43.349Z,2.28
2023-05-03T15:16:46.670Z,2.72
2023-05-03T15:19:50.604Z,2.77
2023-05-03T15:22:53.856Z,2.67
2023-05-03T15:25:56.971Z,3.40
2023-05-03T15:29:00.153Z,2.85
2023-05-03T15:32:03.608Z,3.20
2023-05-03T15:35:07.418Z,3.00
2023-05-03T15:38:10.472Z,2.72
2023-05-03T15:41:14.018Z,3.30
2023-05-03T15:44:17.249Z,3.00
2023-05-03T15:47:20.571Z,2.97
2023-05-03T15:50:23.701Z,2.47
2023-05-03T15:53:27.333Z,3.00
2023-05-03T15:56:31.426Z,3.47
2023-05-03T15:59:34.794Z,2.30
2023-05-03T16:02:38.347Z,2.78
2023-05-03T16:05:41.732Z,2.80
2023-05-03T16:08:45.905Z,3.00
2023-05-03T16:11:51.879Z,3.05
2023-05-03T16:14:55.676Z,2.92
2023-05-03T16:17:59.141Z,2.95
2023-05-03T16:21:02.921Z,3.20
2023-05-03T16:24:06.457Z,3.05
2023-05-03T16:27:09.774Z,3.47
2023-05-03T16:30:13.871Z,3.00
2023-05-03T16:33:18.291Z,2.80
2023-05-03T16:36:21.701Z,3.23
2023-05-03T16:39:24.796Z,3.08
2023-05-03T16:42:28.280Z,2.95
2023-05-03T16:45:31.682Z,2.70
2023-05-03T16:48:36.519Z,2.88
2023-05-03T16:51:41.046Z,3.07
2023-05-03T16:54:44.596Z,3.42
2023-05-03T16:57:47.636Z,2.95
2023-05-03T17:00:54.669Z,2.95
2023-05-03T17:03:58.121Z,3.00
2023-05-03T17:07:01.637Z,2.97
2023-05-03T17:10:06.933Z,2.85
2023-05-03T17:13:13.364Z,2.83
2023-05-03T17:16:18.023Z,3.25
2023-05-03T17:19:21.323Z,3.50
2023-05-03T17:22:24.426Z,2.50
2023-05-03T17:25:27.865Z,3.30
2023-05-03T17:28:32.736Z,3.08
2023-05-03T17:31:36.341Z,3.15
2023-05-03T17:34:39.655Z,3.85
2023-05-03T17:37:42.757Z,2.80
2023-05-03T17:40:46.466Z,2.90
2023-05-03T17:43:51.454Z,2.97
2023-05-03T17:46:56.943Z,3.13
2023-05-03T17:50:00.169Z,2.67
2023-05-03T17:53:03.826Z,3.33
2023-05-03T17:56:14.416Z,2.88
2023-05-03T17:59:18.106Z,3.10
2023-05-03T18:02:21.843Z,2.92
2023-05-03T18:05:25.158Z,3.20
2023-05-03T18:08:28.916Z,2.67
2023-05-03T18:11:34.101Z,3.30
2023-05-03T18:14:37.889Z,3.40
2023-05-03T18:17:41.137Z,2.80
2023-05-03T18:20:46.033Z,3.35
2023-05-03T18:23:49.463Z,3.17
2023-05-03T18:26:53.013Z,2.95
2023-05-03T18:29:56.500Z,3.00
2023-05-03T18:33:00.507Z,2.67
2023-05-03T18:36:08.928Z,3.40
2023-05-03T18:39:12.313Z,2.73
2023-05-03T18:42:16.484Z,2.90
2023-05-03T18:45:20.405Z,3.20
2023-05-03T18:48:23.286Z,2.80
2023-05-03T18:51:26.905Z,3.38
2023-05-03T18:54:29.964Z,3.63
2023-05-03T18:57:33.255Z,3.88
2023-05-03T19:00:37.294Z,3.20
2023-05-03T19:03:40.914Z,2.85
2023-05-03T19:06:44.458Z,3.47
2023-05-03T19:09:52.692Z,3.47
2023-05-03T19:12:56.022Z,3.00
2023-05-03T19:15:59.201Z,3.35
2023-05-03T19:19:02.575Z,3.35
2023-05-03T19:22:06.936Z,4.00
2023-05-03T19:25:10.285Z,3.63
2023-05-03T19:28:13.736Z,3.40
2023-05-03T19:31:18.113Z,3.40
2023-05-03T19:34:21.642Z,3.58
2023-05-03T19:37:24.998Z,3.03
2023-05-03T19:40:28.417Z,3.27
2023-05-03T19:43:31.580Z,3.15
2023-05-03T19:46:35.378Z,3.00
2023-05-03T19:49:38.471Z,3.30
2023-05-03T19:52:42.355Z,3.15
2023-05-03T19:55:59.308Z,3.20
2023-05-03T19:59:02.496Z,3.20
2023-05-03T20:02:06.107Z,3.15
2023-05-03T20:05:09.178Z,3.13
2023-05-03T20:08:12.464Z,3.22
2023-05-03T20:11:15.407Z,2.90
2023-05-03T20:14:18.725Z,3.38
2023-05-03T20:17:22.112Z,3.63
2023-05-03T20:20:27.289Z,3.42
2023-05-03T20:23:30.875Z,3.08
2023-05-03T20:26:33.955Z,3.13
2023-05-03T20:29:37.343Z,3.25
2023-05-03T20:32:41.644Z,4.22
2023-05-03T20:35:44.969Z,4.15
2023-05-03T20:38:48.295Z,3.58
2023-05-03T20:41:51.677Z,3.80
2023-05-03T20:44:54.651Z,3.25
2023-05-03T20:47:57.817Z,3.65
2023-05-03T20:51:02.740Z,4.20
2023-05-03T20:54:06.161Z,4.03
2023-05-03T20:57:09.169Z,3.70
2023-05-03T21:00:12.994Z,3.60
2023-05-03T21:03:16.655Z,3.55
2023-05-03T21:06:20.165Z,4.68
2023-05-03T21:09:24.328Z,3.70
2023-05-03T21:12:28.878Z,3.73
2023-05-03T21:15:31.961Z,4.15
2023-05-03T21:18:35.213Z,4.22
2023-05-03T21:21:38.547Z,4.85
2023-05-03T21:24:42.102Z,4.15
2023-05-03T21:27:45.111Z,4.90
2023-05-03T21:30:50.365Z,3.90
2023-05-03T21:33:54.223Z,4.10
2023-05-03T21:36:57.658Z,4.93
2023-05-03T21:40:17.958Z,4.25
2023-05-03T21:43:21.859Z,4.80
2023-05-03T21:46:24.931Z,4.22
2023-05-03T21:49:28.803Z,4.85
2023-05-03T21:52:33.281Z,3.83
2023-05-03T21:55:36.541Z,5.03
2023-05-03T21:58:46.644Z,4.50
2023-05-03T22:01:50.473Z,4.57
2023-05-03T22:04:53.570Z,4.70
2023-05-03T22:07:56.653Z,4.78
2023-05-03T22:11:06.982Z,4.80
2023-05-03T22:14:10.245Z,5.17
2023-05-03T22:17:13.759Z,3.97
2023-05-03T22:20:17.711Z,5.13
2023-05-03T22:23:20.680Z,4.82
2023-05-03T22:26:25.092Z,4.75
2023-05-03T22:29:28.333Z,5.30
2023-05-03T22:32:31.656Z,5.85
2023-05-03T22:35:34.946Z,4.85
2023-05-03T22:38:38.358Z,4.80
2023-05-03T22:41:42.793Z,4.68
2023-05-03T22:44:46.102Z,5.27
2023-05-03T22:47:49.190Z,5.82
2023-05-03T22:50:53.926Z,5.13
2023-05-03T22:53:56.896Z,5.00
2023-05-03T22:56:59.934Z,5.00
2023-05-03T23:00:04.496Z,5.50
2023-05-03T23:03:11.629Z,5.50
2023-05-03T23:06:15.125Z,5.85
2023-05-03T23:09:18.334Z,5.30
2023-05-03T23:12:21.743Z,6.53
2023-05-03T23:15:25.137Z,5.03
2023-05-03T23:18:28.625Z,4.90
2023-05-03T23:21:32.521Z,5.38
2023-05-03T23:24:35.811Z,5.53
2023-05-03T23:27:39.060Z,5.60
2023-05-03T23:30:44.949Z,5.07
2023-05-03T23:33:48.567Z,5.97
2023-05-03T23:36:51.735Z,5.65
2023-05-03T23:39:54.816Z,5.80
2023-05-03T23:42:58.217Z,5.50
2023-05-03T23:46:01.595Z,6.10
2023-05-03T23:49:05.074Z,6.15
2023-05-03T23:52:09.816Z,5.65
2023-05-03T23:55:13.281Z,5.95
2023-05-03T23:58:16.352Z,5.60
